sensor_id;sensor_type;location;lat;lon;timestamp;temperature;humidity
9949;DHT22;5013;51.840;8.276;2022-11-20T00:00:52;-2.70;1.00
9949;DHT22;5013;51.840;8.276;2022-11-20T00:03:18;-2.70;99.90
9949;DHT22;5013;51.840;8.276;2022-11-20T00:05:44;-2.80;1.00
9949;DHT22;5013;51.840;8.276;2022-11-20T00:08:10;-2.80;1.00
9949;DHT22;5013;51.840;8.276;2022-11-20T00:10:36;-2.80;1.00
9949;DHT22;5013;51.840;8.276;2022-11-20T00:13:02;-3.00;99.90
9949;DHT22;5013;51.840;8.276;2022-11-20T00:15:28;-3.00;1.00
9949;DHT22;5013;51.840;8.276;2022-11-20T00:17:54;-2.90;7.80
9949;DHT22;5013;51.840;8.276;2022-11-20T00:20:19;-3.00;1.00
9949;DHT22;5013;51.840;8.276;2022-11-20T00:22:45;-3.00;1.00
9949;DHT22;5013;51.840;8.276;2022-11-20T00:25:10;-2.90;1.00
9949;DHT22;5013;51.840;8.276;2022-11-20T00:27:36;-3.00;99.90
9949;DHT22;5013;51.840;8.276;2022-11-20T00:30:03;-3.10;99.90
9949;DHT22;5013;51.840;8.276;2022-11-20T00:32:29;-3.10;1.00
9949;DHT22;5013;51.840;8.276;2022-11-20T00:34:55;-3.00;1.00
9949;DHT22;5013;51.840;8.276;2022-11-20T00:37:21;-3.10;1.00
9949;DHT22;5013;51.840;8.276;2022-11-20T00:39:46;-3.10;1.00
9949;DHT22;5013;51.840;8.276;2022-11-20T00:42:12;-3.00;1.00
9949;DHT22;5013;51.840;8.276;2022-11-20T00:44:38;-3.00;47.80
9949;DHT22;5013;51.840;8.276;2022-11-20T00:47:03;-3.00;1.00
9949;DHT22;5013;51.840;8.276;2022-11-20T00:49:29;-2.90;99.90
9949;DHT22;5013;51.840;8.276;2022-11-20T00:51:55;-3.00;1.00
9949;DHT22;5013;51.840;8.276;2022-11-20T00:54:20;-3.30;99.90
9949;DHT22;5013;51.840;8.276;2022-11-20T00:56:46;-3.30;1.00
9949;DHT22;5013;51.840;8.276;2022-11-20T00:59:12;-3.30;99.90
9949;DHT22;5013;51.840;8.276;2022-11-20T01:01:37;-3.20;99.90
9949;DHT22;5013;51.840;8.276;2022-11-20T01:04:03;-3.20;1.00
9949;DHT22;5013;51.840;8.276;2022-11-20T01:06:34;-3.20;1.00
9949;DHT22;5013;51.840;8.276;2022-11-20T01:09:04;-3.30;1.00
9949;DHT22;5013;51.840;8.276;2022-11-20T01:11:32;-3.10;1.00
9949;DHT22;5013;51.840;8.276;2022-11-20T01:14:00;-3.20;54.50
9949;DHT22;5013;51.840;8.276;2022-11-20T01:16:32;-3.20;1.00
9949;DHT22;5013;51.840;8.276;2022-11-20T01:19:00;-3.20;1.00
9949;DHT22;5013;51.840;8.276;2022-11-20T01:21:31;-3.20;1.00
9949;DHT22;5013;51.840;8.276;2022-11-20T01:23:57;-3.30;1.00
9949;DHT22;5013;51.840;8.276;2022-11-20T01:26:29;-3.40;99.90
9949;DHT22;5013;51.840;8.276;2022-11-20T01:28:56;-3.40;1.00
9949;DHT22;5013;51.840;8.276;2022-11-20T01:31:24;-3.40;1.00
9949;DHT22;5013;51.840;8.276;2022-11-20T01:33:53;-3.40;99.90
9949;DHT22;5013;51.840;8.276;2022-11-20T01:36:22;-3.40;1.00
9949;DHT22;5013;51.840;8.276;2022-11-20T01:38:50;-3.40;23.10
9949;DHT22;5013;51.840;8.276;2022-11-20T01:41:16;-3.40;99.90
9949;DHT22;5013;51.840;8.276;2022-11-20T01:44:00;-3.40;1.00
9949;DHT22;5013;51.840;8.276;2022-11-20T01:46:27;-3.40;99.90
9949;DHT22;5013;51.840;8.276;2022-11-20T01:49:14;-3.50;1.00
9949;DHT22;5013;51.840;8.276;2022-11-20T01:51:51;-3.50;1.00
9949;DHT22;5013;51.840;8.276;2022-11-20T01:54:23;-3.40;99.90
9949;DHT22;5013;51.840;8.276;2022-11-20T01:56:52;-3.40;99.90
9949;DHT22;5013;51.840;8.276;2022-11-20T01:59:20;-3.60;99.90
9949;DHT22;5013;51.840;8.276;2022-11-20T02:01:47;-3.60;1.00
9949;DHT22;5013;51.840;8.276;2022-11-20T02:04:13;-3.60;99.90
9949;DHT22;5013;51.840;8.276;2022-11-20T02:06:49;-3.70;67.40
9949;DHT22;5013;51.840;8.276;2022-11-20T02:09:16;-3.60;1.00
9949;DHT22;5013;51.840;8.276;2022-11-20T02:11:42;-3.80;99.90
9949;DHT22;5013;51.840;8.276;2022-11-20T02:14:09;-3.80;60.10
9949;DHT22;5013;51.840;8.276;2022-11-20T02:16:37;-3.70;99.90
9949;DHT22;5013;51.840;8.276;2022-11-20T02:19:07;-3.80;1.00
9949;DHT22;5013;51.840;8.276;2022-11-20T02:24:19;-3.80;1.00
9949;DHT22;5013;51.840;8.276;2022-11-20T02:27:02;-3.90;7.60
9949;DHT22;5013;51.840;8.276;2022-11-20T02:29:53;-3.80;1.00
9949;DHT22;5013;51.840;8.276;2022-11-20T02:32:30;-3.70;99.90
9949;DHT22;5013;51.840;8.276;2022-11-20T02:34:56;-3.70;97.30
9949;DHT22;5013;51.840;8.276;2022-11-20T02:37:22;-3.80;99.90
9949;DHT22;5013;51.840;8.276;2022-11-20T02:39:50;-3.90;99.90
9949;DHT22;5013;51.840;8.276;2022-11-20T02:42:16;-3.90;1.00
9949;DHT22;5013;51.840;8.276;2022-11-20T02:44:42;-4.10;99.90
9949;DHT22;5013;51.840;8.276;2022-11-20T02:47:08;-4.10;99.90
9949;DHT22;5013;51.840;8.276;2022-11-20T02:49:33;-4.00;99.90
9949;DHT22;5013;51.840;8.276;2022-11-20T02:51:59;-4.00;1.00
9949;DHT22;5013;51.840;8.276;2022-11-20T02:54:25;-3.90;1.00
9949;DHT22;5013;51.840;8.276;2022-11-20T02:56:51;-4.00;2.40
9949;DHT22;5013;51.840;8.276;2022-11-20T02:59:17;-4.10;62.50
9949;DHT22;5013;51.840;8.276;2022-11-20T03:01:42;-4.10;99.90
9949;DHT22;5013;51.840;8.276;2022-11-20T03:04:08;-4.10;1.00
9949;DHT22;5013;51.840;8.276;2022-11-20T03:06:34;-4.00;1.00
9949;DHT22;5013;51.840;8.276;2022-11-20T03:09:00;-4.00;1.00
9949;DHT22;5013;51.840;8.276;2022-11-20T03:11:25;-3.90;1.00
9949;DHT22;5013;51.840;8.276;2022-11-20T03:13:51;-3.90;99.90
9949;DHT22;5013;51.840;8.276;2022-11-20T03:16:19;-4.10;99.90
9949;DHT22;5013;51.840;8.276;2022-11-20T03:18:46;-4.20;1.00
9949;DHT22;5013;51.840;8.276;2022-11-20T03:21:13;-4.10;99.90
9949;DHT22;5013;51.840;8.276;2022-11-20T03:23:39;-4.00;99.90
9949;DHT22;5013;51.840;8.276;2022-11-20T03:26:20;-4.00;1.00
9949;DHT22;5013;51.840;8.276;2022-11-20T03:28:48;-4.10;99.90
9949;DHT22;5013;51.840;8.276;2022-11-20T03:31:16;-4.20;99.90
9949;DHT22;5013;51.840;8.276;2022-11-20T03:33:43;-4.30;1.00
9949;DHT22;5013;51.840;8.276;2022-11-20T03:36:12;-4.30;99.90
9949;DHT22;5013;51.840;8.276;2022-11-20T03:38:38;-4.30;99.90
9949;DHT22;5013;51.840;8.276;2022-11-20T03:41:06;-4.20;1.00
9949;DHT22;5013;51.840;8.276;2022-11-20T03:43:32;-4.10;1.00
9949;DHT22;5013;51.840;8.276;2022-11-20T03:45:58;-4.10;99.90
9949;DHT22;5013;51.840;8.276;2022-11-20T03:48:24;-4.10;1.00
9949;DHT22;5013;51.840;8.276;2022-11-20T03:50:51;-4.20;1.00
9949;DHT22;5013;51.840;8.276;2022-11-20T03:53:16;-4.20;1.00
9949;DHT22;5013;51.840;8.276;2022-11-20T03:55:42;-4.10;1.00
9949;DHT22;5013;51.840;8.276;2022-11-20T03:58:09;-4.20;1.00
9949;DHT22;5013;51.840;8.276;2022-11-20T04:00:34;-4.20;1.00
9949;DHT22;5013;51.840;8.276;2022-11-20T04:03:01;-4.10;1.00
9949;DHT22;5013;51.840;8.276;2022-11-20T04:05:27;-4.10;1.00
9949;DHT22;5013;51.840;8.276;2022-11-20T04:07:53;-4.10;99.90
9949;DHT22;5013;51.840;8.276;2022-11-20T04:10:19;-4.20;99.90
9949;DHT22;5013;51.840;8.276;2022-11-20T04:12:45;-4.30;1.00
9949;DHT22;5013;51.840;8.276;2022-11-20T04:15:11;-4.30;1.00
9949;DHT22;5013;51.840;8.276;2022-11-20T04:17:36;-4.20;99.90
9949;DHT22;5013;51.840;8.276;2022-11-20T04:20:02;-4.30;1.00
9949;DHT22;5013;51.840;8.276;2022-11-20T04:22:28;-4.30;1.00
9949;DHT22;5013;51.840;8.276;2022-11-20T04:24:54;-4.20;92.60
9949;DHT22;5013;51.840;8.276;2022-11-20T04:27:19;-4.40;99.90
9949;DHT22;5013;51.840;8.276;2022-11-20T04:29:45;-4.40;1.00
9949;DHT22;5013;51.840;8.276;2022-11-20T04:32:10;-4.40;1.00
9949;DHT22;5013;51.840;8.276;2022-11-20T04:34:36;-4.30;99.90
9949;DHT22;5013;51.840;8.276;2022-11-20T04:37:01;-4.30;99.90
9949;DHT22;5013;51.840;8.276;2022-11-20T04:39:27;-4.40;99.90
9949;DHT22;5013;51.840;8.276;2022-11-20T04:41:53;-4.50;99.90
9949;DHT22;5013;51.840;8.276;2022-11-20T04:44:38;-4.40;1.00
9949;DHT22;5013;51.840;8.276;2022-11-20T04:47:04;-4.50;99.90
9949;DHT22;5013;51.840;8.276;2022-11-20T04:49:30;-4.30;1.00
9949;DHT22;5013;51.840;8.276;2022-11-20T04:51:57;-4.60;99.90
9949;DHT22;5013;51.840;8.276;2022-11-20T04:54:23;-4.40;1.00
9949;DHT22;5013;51.840;8.276;2022-11-20T04:56:48;-4.30;1.00
9949;DHT22;5013;51.840;8.276;2022-11-20T04:59:14;-4.40;99.90
9949;DHT22;5013;51.840;8.276;2022-11-20T05:01:40;-4.50;1.00
9949;DHT22;5013;51.840;8.276;2022-11-20T05:04:05;-4.50;99.90
9949;DHT22;5013;51.840;8.276;2022-11-20T05:06:32;-4.40;99.90
9949;DHT22;5013;51.840;8.276;2022-11-20T05:08:58;-4.40;1.00
9949;DHT22;5013;51.840;8.276;2022-11-20T05:11:24;-4.40;99.90
9949;DHT22;5013;51.840;8.276;2022-11-20T05:13:50;-4.50;1.00
9949;DHT22;5013;51.840;8.276;2022-11-20T05:16:19;-4.40;99.90
9949;DHT22;5013;51.840;8.276;2022-11-20T05:18:45;-4.40;1.00
9949;DHT22;5013;51.840;8.276;2022-11-20T05:21:11;-4.40;1.00
9949;DHT22;5013;51.840;8.276;2022-11-20T05:23:38;-4.30;1.00
9949;DHT22;5013;51.840;8.276;2022-11-20T05:26:05;-4.20;1.00
9949;DHT22;5013;51.840;8.276;2022-11-20T05:28:31;-4.20;99.90
9949;DHT22;5013;51.840;8.276;2022-11-20T05:31:08;-4.30;99.90
9949;DHT22;5013;51.840;8.276;2022-11-20T05:33:35;-4.20;1.00
9949;DHT22;5013;51.840;8.276;2022-11-20T05:36:02;-4.30;99.90
9949;DHT22;5013;51.840;8.276;2022-11-20T05:38:28;-4.40;99.90
9949;DHT22;5013;51.840;8.276;2022-11-20T05:40:53;-4.40;1.00
9949;DHT22;5013;51.840;8.276;2022-11-20T05:43:19;-4.30;99.90
9949;DHT22;5013;51.840;8.276;2022-11-20T05:45:52;-4.50;99.90
9949;DHT22;5013;51.840;8.276;2022-11-20T05:48:18;-4.60;1.00
9949;DHT22;5013;51.840;8.276;2022-11-20T05:50:44;-4.60;1.00
9949;DHT22;5013;51.840;8.276;2022-11-20T05:53:09;-4.50;99.90
9949;DHT22;5013;51.840;8.276;2022-11-20T05:55:35;-4.40;1.00
9949;DHT22;5013;51.840;8.276;2022-11-20T05:58:00;-4.40;1.00
9949;DHT22;5013;51.840;8.276;2022-11-20T06:00:26;-4.30;99.90
9949;DHT22;5013;51.840;8.276;2022-11-20T06:02:52;-4.40;99.90
9949;DHT22;5013;51.840;8.276;2022-11-20T06:05:17;-4.40;1.00
9949;DHT22;5013;51.840;8.276;2022-11-20T06:07:43;-4.40;1.00
9949;DHT22;5013;51.840;8.276;2022-11-20T06:10:09;-4.20;99.90
9949;DHT22;5013;51.840;8.276;2022-11-20T06:12:34;-4.10;99.90
9949;DHT22;5013;51.840;8.276;2022-11-20T06:15:00;-4.20;99.90
9949;DHT22;5013;51.840;8.276;2022-11-20T06:17:26;-4.20;99.90
9949;DHT22;5013;51.840;8.276;2022-11-20T06:19:52;-4.10;1.00
9949;DHT22;5013;51.840;8.276;2022-11-20T06:22:18;-4.00;99.90
9949;DHT22;5013;51.840;8.276;2022-11-20T06:24:43;-3.90;99.90
9949;DHT22;5013;51.840;8.276;2022-11-20T06:27:09;-3.80;1.00
9949;DHT22;5013;51.840;8.276;2022-11-20T06:29:34;-3.80;99.90
9949;DHT22;5013;51.840;8.276;2022-11-20T06:32:00;-3.70;99.90
9949;DHT22;5013;51.840;8.276;2022-11-20T06:34:26;-3.90;1.00
9949;DHT22;5013;51.840;8.276;2022-11-20T06:36:52;-3.80;1.00
9949;DHT22;5013;51.840;8.276;2022-11-20T06:39:17;-3.80;99.90
9949;DHT22;5013;51.840;8.276;2022-11-20T06:41:43;-3.80;99.90
9949;DHT22;5013;51.840;8.276;2022-11-20T06:44:08;-3.80;99.90
9949;DHT22;5013;51.840;8.276;2022-11-20T06:46:34;-3.80;99.90
9949;DHT22;5013;51.840;8.276;2022-11-20T06:49:00;-3.70;1.00
9949;DHT22;5013;51.840;8.276;2022-11-20T06:51:25;-3.80;99.90
9949;DHT22;5013;51.840;8.276;2022-11-20T06:53:51;-3.90;99.90
9949;DHT22;5013;51.840;8.276;2022-11-20T06:56:16;-3.80;99.90
9949;DHT22;5013;51.840;8.276;2022-11-20T06:58:42;-3.70;1.00
9949;DHT22;5013;51.840;8.276;2022-11-20T07:01:10;-3.70;1.00
9949;DHT22;5013;51.840;8.276;2022-11-20T07:03:37;-3.70;12.60
9949;DHT22;5013;51.840;8.276;2022-11-20T07:06:03;-3.80;1.00
9949;DHT22;5013;51.840;8.276;2022-11-20T07:08:29;-3.80;99.90
9949;DHT22;5013;51.840;8.276;2022-11-20T07:11:04;-3.70;1.00
9949;DHT22;5013;51.840;8.276;2022-11-20T07:13:30;-3.70;96.70
9949;DHT22;5013;51.840;8.276;2022-11-20T07:16:00;-3.80;99.90
9949;DHT22;5013;51.840;8.276;2022-11-20T07:18:26;-3.80;1.00
9949;DHT22;5013;51.840;8.276;2022-11-20T07:20:52;-3.90;64.10
9949;DHT22;5013;51.840;8.276;2022-11-20T07:23:18;-3.90;54.00
9949;DHT22;5013;51.840;8.276;2022-11-20T07:25:44;-3.90;1.00
9949;DHT22;5013;51.840;8.276;2022-11-20T07:28:09;-4.00;99.90
9949;DHT22;5013;51.840;8.276;2022-11-20T07:30:36;-3.90;97.10
9949;DHT22;5013;51.840;8.276;2022-11-20T07:33:01;-4.00;15.60
9949;DHT22;5013;51.840;8.276;2022-11-20T07:35:27;-4.00;1.00
9949;DHT22;5013;51.840;8.276;2022-11-20T07:37:52;-4.00;1.00
9949;DHT22;5013;51.840;8.276;2022-11-20T07:40:19;-4.00;99.90
9949;DHT22;5013;51.840;8.276;2022-11-20T07:42:49;-4.10;99.90
9949;DHT22;5013;51.840;8.276;2022-11-20T07:45:15;-4.00;99.90
9949;DHT22;5013;51.840;8.276;2022-11-20T07:47:41;-4.00;78.10
9949;DHT22;5013;51.840;8.276;2022-11-20T07:50:07;-4.00;99.90
9949;DHT22;5013;51.840;8.276;2022-11-20T07:52:32;-3.90;1.00
9949;DHT22;5013;51.840;8.276;2022-11-20T07:54:58;-3.80;1.00
9949;DHT22;5013;51.840;8.276;2022-11-20T07:57:24;-3.80;99.90
9949;DHT22;5013;51.840;8.276;2022-11-20T07:59:49;-3.70;16.20
9949;DHT22;5013;51.840;8.276;2022-11-20T08:02:15;-3.70;1.00
9949;DHT22;5013;51.840;8.276;2022-11-20T08:04:40;-3.70;1.00
9949;DHT22;5013;51.840;8.276;2022-11-20T08:07:06;-3.60;1.00
9949;DHT22;5013;51.840;8.276;2022-11-20T08:09:31;-3.60;1.00
9949;DHT22;5013;51.840;8.276;2022-11-20T08:11:57;-3.50;99.90
9949;DHT22;5013;51.840;8.276;2022-11-20T08:14:42;-3.40;1.00
9949;DHT22;5013;51.840;8.276;2022-11-20T08:17:07;-3.50;99.90
9949;DHT22;5013;51.840;8.276;2022-11-20T08:19:33;-3.50;1.00
9949;DHT22;5013;51.840;8.276;2022-11-20T08:21:58;-3.40;99.90
9949;DHT22;5013;51.840;8.276;2022-11-20T08:24:24;-3.20;99.90
9949;DHT22;5013;51.840;8.276;2022-11-20T08:26:51;-3.10;1.00
9949;DHT22;5013;51.840;8.276;2022-11-20T08:29:17;-3.00;1.00
9949;DHT22;5013;51.840;8.276;2022-11-20T08:31:43;-3.10;67.60
9949;DHT22;5013;51.840;8.276;2022-11-20T08:34:09;-3.10;1.00
9949;DHT22;5013;51.840;8.276;2022-11-20T08:36:35;-3.00;85.30
9949;DHT22;5013;51.840;8.276;2022-11-20T08:39:00;-2.90;99.90
9949;DHT22;5013;51.840;8.276;2022-11-20T08:41:26;-2.70;99.90
9949;DHT22;5013;51.840;8.276;2022-11-20T08:44:13;-2.60;99.90
9949;DHT22;5013;51.840;8.276;2022-11-20T08:46:40;-2.70;1.00
9949;DHT22;5013;51.840;8.276;2022-11-20T08:49:09;-2.60;99.90
9949;DHT22;5013;51.840;8.276;2022-11-20T08:51:35;-2.50;99.90
9949;DHT22;5013;51.840;8.276;2022-11-20T08:54:01;-2.40;99.90
9949;DHT22;5013;51.840;8.276;2022-11-20T08:56:28;-2.40;34.30
9949;DHT22;5013;51.840;8.276;2022-11-20T08:58:53;-2.20;99.90
9949;DHT22;5013;51.840;8.276;2022-11-20T09:01:20;-2.00;99.90
9949;DHT22;5013;51.840;8.276;2022-11-20T09:03:46;-2.00;99.90
9949;DHT22;5013;51.840;8.276;2022-11-20T09:06:13;-1.90;1.00
9949;DHT22;5013;51.840;8.276;2022-11-20T09:08:39;-1.80;99.90
9949;DHT22;5013;51.840;8.276;2022-11-20T09:11:05;-1.70;1.00
9949;DHT22;5013;51.840;8.276;2022-11-20T09:13:32;-1.60;1.00
9949;DHT22;5013;51.840;8.276;2022-11-20T09:16:01;-1.50;99.90
9949;DHT22;5013;51.840;8.276;2022-11-20T09:18:28;-1.30;91.60
9949;DHT22;5013;51.840;8.276;2022-11-20T09:20:58;-1.20;1.00
9949;DHT22;5013;51.840;8.276;2022-11-20T09:23:24;-1.00;1.00
9949;DHT22;5013;51.840;8.276;2022-11-20T09:25:49;-1.00;1.00
9949;DHT22;5013;51.840;8.276;2022-11-20T09:28:15;-0.80;1.00
9949;DHT22;5013;51.840;8.276;2022-11-20T09:30:41;-0.80;92.60
9949;DHT22;5013;51.840;8.276;2022-11-20T09:33:07;-0.80;99.90
9949;DHT22;5013;51.840;8.276;2022-11-20T09:35:33;-0.70;1.00
9949;DHT22;5013;51.840;8.276;2022-11-20T09:38:04;-0.60;99.90
9949;DHT22;5013;51.840;8.276;2022-11-20T09:40:31;-0.50;1.00
9949;DHT22;5013;51.840;8.276;2022-11-20T09:43:14;-0.50;99.90
9949;DHT22;5013;51.840;8.276;2022-11-20T09:48:51;-0.10;1.00
9949;DHT22;5013;51.840;8.276;2022-11-20T09:56:30;0.00;1.00
9949;DHT22;5013;51.840;8.276;2022-11-20T09:59:00;0.10;1.00
9949;DHT22;5013;51.840;8.276;2022-11-20T10:01:35;0.40;1.00
9949;DHT22;5013;51.840;8.276;2022-11-20T10:06:33;0.70;1.00
9949;DHT22;5013;51.840;8.276;2022-11-20T10:14:34;0.90;75.10
9949;DHT22;5013;51.840;8.276;2022-11-20T10:20:16;1.40;99.90
9949;DHT22;5013;51.840;8.276;2022-11-20T10:25:16;1.40;1.00
9949;DHT22;5013;51.840;8.276;2022-11-20T10:30:27;1.60;1.00
9949;DHT22;5013;51.840;8.276;2022-11-20T10:33:00;1.80;1.00
9949;DHT22;5013;51.840;8.276;2022-11-20T10:35:38;2.00;1.00
9949;DHT22;5013;51.840;8.276;2022-11-20T10:38:43;2.00;1.00
9949;DHT22;5013;51.840;8.276;2022-11-20T10:41:21;2.00;1.00
9949;DHT22;5013;51.840;8.276;2022-11-20T10:43:57;1.90;99.90
9949;DHT22;5013;51.840;8.276;2022-11-20T10:46:25;2.00;1.00
9949;DHT22;5013;51.840;8.276;2022-11-20T10:48:51;2.00;99.90
9949;DHT22;5013;51.840;8.276;2022-11-20T10:51:36;2.00;99.90
9949;DHT22;5013;51.840;8.276;2022-11-20T10:59:50;2.20;99.90
9949;DHT22;5013;51.840;8.276;2022-11-20T11:04:47;2.20;99.90
9949;DHT22;5013;51.840;8.276;2022-11-20T11:07:36;2.40;99.90
9949;DHT22;5013;51.840;8.276;2022-11-20T11:10:20;2.70;99.90
9949;DHT22;5013;51.840;8.276;2022-11-20T11:12:48;2.90;99.90
9949;DHT22;5013;51.840;8.276;2022-11-20T11:15:38;2.90;1.00
9949;DHT22;5013;51.840;8.276;2022-11-20T11:18:04;2.90;1.00
9949;DHT22;5013;51.840;8.276;2022-11-20T11:20:30;2.80;1.00
9949;DHT22;5013;51.840;8.276;2022-11-20T11:22:58;3.00;99.90
9949;DHT22;5013;51.840;8.276;2022-11-20T11:25:30;3.10;99.90
9949;DHT22;5013;51.840;8.276;2022-11-20T11:28:00;3.10;1.00
9949;DHT22;5013;51.840;8.276;2022-11-20T11:30:28;3.10;1.00
9949;DHT22;5013;51.840;8.276;2022-11-20T11:33:08;3.20;1.00
9949;DHT22;5013;51.840;8.276;2022-11-20T11:35:46;3.10;1.00
9949;DHT22;5013;51.840;8.276;2022-11-20T11:41:00;3.20;99.90
9949;DHT22;5013;51.840;8.276;2022-11-20T11:43:30;3.20;99.90
9949;DHT22;5013;51.840;8.276;2022-11-20T12:00:19;3.40;99.90
9949;DHT22;5013;51.840;8.276;2022-11-20T12:07:43;3.50;99.90
9949;DHT22;5013;51.840;8.276;2022-11-20T12:11:11;3.60;99.90
9949;DHT22;5013;51.840;8.276;2022-11-20T12:15:50;3.90;1.00
9949;DHT22;5013;51.840;8.276;2022-11-20T12:18:21;4.00;99.90
9949;DHT22;5013;51.840;8.276;2022-11-20T12:37:36;3.60;99.90
9949;DHT22;5013;51.840;8.276;2022-11-20T12:43:06;3.60;99.90
9949;DHT22;5013;51.840;8.276;2022-11-20T12:46:21;3.70;1.00
9949;DHT22;5013;51.840;8.276;2022-11-20T12:49:05;3.90;1.00
9949;DHT22;5013;51.840;8.276;2022-11-20T12:56:58;4.30;1.00
9949;DHT22;5013;51.840;8.276;2022-11-20T13:02:23;4.40;1.00
9949;DHT22;5013;51.840;8.276;2022-11-20T13:07:24;4.50;1.00
9949;DHT22;5013;51.840;8.276;2022-11-20T13:09:51;4.60;1.00
9949;DHT22;5013;51.840;8.276;2022-11-20T13:14:59;4.30;1.00
9949;DHT22;5013;51.840;8.276;2022-11-20T13:17:35;4.30;1.00
9949;DHT22;5013;51.840;8.276;2022-11-20T13:20:05;4.20;99.90
9949;DHT22;5013;51.840;8.276;2022-11-20T13:22:49;4.10;1.00
9949;DHT22;5013;51.840;8.276;2022-11-20T13:25:31;4.10;99.90
9949;DHT22;5013;51.840;8.276;2022-11-20T13:27:59;4.10;1.00
9949;DHT22;5013;51.840;8.276;2022-11-20T13:30:30;4.10;1.00
9949;DHT22;5013;51.840;8.276;2022-11-20T13:33:08;4.00;1.00
9949;DHT22;5013;51.840;8.276;2022-11-20T13:35:54;4.00;1.00
9949;DHT22;5013;51.840;8.276;2022-11-20T13:38:20;3.90;1.00
9949;DHT22;5013;51.840;8.276;2022-11-20T13:40:57;3.80;1.00
9949;DHT22;5013;51.840;8.276;2022-11-20T13:43:36;3.70;1.00
9949;DHT22;5013;51.840;8.276;2022-11-20T13:46:06;3.70;1.00
9949;DHT22;5013;51.840;8.276;2022-11-20T13:48:43;3.90;1.00
9949;DHT22;5013;51.840;8.276;2022-11-20T13:57:14;3.60;1.00
9949;DHT22;5013;51.840;8.276;2022-11-20T14:02:14;3.60;99.90
9949;DHT22;5013;51.840;8.276;2022-11-20T14:04:54;3.70;59.20
9949;DHT22;5013;51.840;8.276;2022-11-20T14:07:25;4.00;1.00
9949;DHT22;5013;51.840;8.276;2022-11-20T14:09:56;3.70;1.00
9949;DHT22;5013;51.840;8.276;2022-11-20T14:12:30;3.70;29.50
9949;DHT22;5013;51.840;8.276;2022-11-20T14:14:57;3.70;13.10
9949;DHT22;5013;51.840;8.276;2022-11-20T14:17:34;3.90;1.00
9949;DHT22;5013;51.840;8.276;2022-11-20T14:20:03;3.80;93.00
9949;DHT22;5013;51.840;8.276;2022-11-20T14:22:29;3.50;99.90
9949;DHT22;5013;51.840;8.276;2022-11-20T14:25:18;3.40;99.90
9949;DHT22;5013;51.840;8.276;2022-11-20T14:27:59;3.40;99.90
9949;DHT22;5013;51.840;8.276;2022-11-20T14:30:36;3.30;1.00
9949;DHT22;5013;51.840;8.276;2022-11-20T14:33:04;3.20;1.00
9949;DHT22;5013;51.840;8.276;2022-11-20T14:35:35;3.10;1.00
9949;DHT22;5013;51.840;8.276;2022-11-20T14:38:02;3.10;1.00
9949;DHT22;5013;51.840;8.276;2022-11-20T14:42:56;3.00;1.00
9949;DHT22;5013;51.840;8.276;2022-11-20T14:45:23;3.00;1.00
9949;DHT22;5013;51.840;8.276;2022-11-20T14:47:51;3.00;1.00
9949;DHT22;5013;51.840;8.276;2022-11-20T14:50:23;3.10;1.00
9949;DHT22;5013;51.840;8.276;2022-11-20T14:53:00;3.10;1.00
9949;DHT22;5013;51.840;8.276;2022-11-20T14:55:34;3.00;1.00
9949;DHT22;5013;51.840;8.276;2022-11-20T14:58:04;2.90;1.00
9949;DHT22;5013;51.840;8.276;2022-11-20T15:00:33;3.10;18.90
9949;DHT22;5013;51.840;8.276;2022-11-20T15:02:59;3.00;91.20
9949;DHT22;5013;51.840;8.276;2022-11-20T15:05:47;2.90;1.00
9949;DHT22;5013;51.840;8.276;2022-11-20T15:08:14;2.90;1.00
9949;DHT22;5013;51.840;8.276;2022-11-20T15:10:46;2.90;1.00
9949;DHT22;5013;51.840;8.276;2022-11-20T15:13:14;2.90;4.00
9949;DHT22;5013;51.840;8.276;2022-11-20T15:15:54;2.80;46.60
9949;DHT22;5013;51.840;8.276;2022-11-20T15:18:31;3.00;81.50
9949;DHT22;5013;51.840;8.276;2022-11-20T15:21:01;2.80;99.90
9949;DHT22;5013;51.840;8.276;2022-11-20T15:23:27;2.80;99.90
9949;DHT22;5013;51.840;8.276;2022-11-20T15:25:54;2.90;99.90
9949;DHT22;5013;51.840;8.276;2022-11-20T15:28:36;2.90;1.00
9949;DHT22;5013;51.840;8.276;2022-11-20T15:31:03;2.80;1.00
9949;DHT22;5013;51.840;8.276;2022-11-20T15:33:29;2.80;99.90
9949;DHT22;5013;51.840;8.276;2022-11-20T15:35:55;2.80;99.90
9949;DHT22;5013;51.840;8.276;2022-11-20T15:38:21;3.00;99.90
9949;DHT22;5013;51.840;8.276;2022-11-20T15:40:46;2.80;1.00
9949;DHT22;5013;51.840;8.276;2022-11-20T15:43:12;2.80;1.00
9949;DHT22;5013;51.840;8.276;2022-11-20T15:45:45;2.90;1.00
9949;DHT22;5013;51.840;8.276;2022-11-20T15:48:15;2.80;99.90
9949;DHT22;5013;51.840;8.276;2022-11-20T15:53:16;2.80;99.90
9949;DHT22;5013;51.840;8.276;2022-11-20T15:55:41;2.70;99.90
9949;DHT22;5013;51.840;8.276;2022-11-20T15:58:07;2.70;99.90
9949;DHT22;5013;51.840;8.276;2022-11-20T16:00:32;2.60;99.90
9949;DHT22;5013;51.840;8.276;2022-11-20T16:02:58;2.60;99.90
9949;DHT22;5013;51.840;8.276;2022-11-20T16:05:27;2.70;1.00
9949;DHT22;5013;51.840;8.276;2022-11-20T16:07:53;2.80;99.90
9949;DHT22;5013;51.840;8.276;2022-11-20T16:10:19;2.80;1.00
9949;DHT22;5013;51.840;8.276;2022-11-20T16:12:45;2.80;1.00
9949;DHT22;5013;51.840;8.276;2022-11-20T16:15:30;2.70;1.00
9949;DHT22;5013;51.840;8.276;2022-11-20T16:18:12;2.70;1.00
9949;DHT22;5013;51.840;8.276;2022-11-20T16:20:39;2.80;1.00
9949;DHT22;5013;51.840;8.276;2022-11-20T16:23:05;2.80;1.00
9949;DHT22;5013;51.840;8.276;2022-11-20T16:25:31;2.80;99.90
9949;DHT22;5013;51.840;8.276;2022-11-20T16:27:57;2.70;99.90
9949;DHT22;5013;51.840;8.276;2022-11-20T16:30:22;2.70;99.90
9949;DHT22;5013;51.840;8.276;2022-11-20T16:32:48;2.70;1.00
9949;DHT22;5013;51.840;8.276;2022-11-20T16:35:14;2.70;1.00
9949;DHT22;5013;51.840;8.276;2022-11-20T16:37:40;2.90;99.90
9949;DHT22;5013;51.840;8.276;2022-11-20T16:40:06;2.90;99.90
9949;DHT22;5013;51.840;8.276;2022-11-20T16:42:33;2.80;99.90
9949;DHT22;5013;51.840;8.276;2022-11-20T16:44:59;2.80;99.90
9949;DHT22;5013;51.840;8.276;2022-11-20T16:47:25;2.70;1.00
9949;DHT22;5013;51.840;8.276;2022-11-20T16:49:51;2.70;1.00
9949;DHT22;5013;51.840;8.276;2022-11-20T16:52:16;2.70;1.00
9949;DHT22;5013;51.840;8.276;2022-11-20T16:54:42;2.60;99.90
9949;DHT22;5013;51.840;8.276;2022-11-20T16:57:07;2.70;99.90
9949;DHT22;5013;51.840;8.276;2022-11-20T16:59:33;2.70;99.90
9949;DHT22;5013;51.840;8.276;2022-11-20T17:01:59;2.70;99.90
9949;DHT22;5013;51.840;8.276;2022-11-20T17:04:24;2.70;1.00
9949;DHT22;5013;51.840;8.276;2022-11-20T17:06:50;2.90;1.00
9949;DHT22;5013;51.840;8.276;2022-11-20T17:09:16;2.80;1.00
9949;DHT22;5013;51.840;8.276;2022-11-20T17:11:41;2.90;1.00
9949;DHT22;5013;51.840;8.276;2022-11-20T17:14:07;2.80;1.00
9949;DHT22;5013;51.840;8.276;2022-11-20T17:16:35;2.80;1.00
9949;DHT22;5013;51.840;8.276;2022-11-20T17:19:01;2.90;7.70
9949;DHT22;5013;51.840;8.276;2022-11-20T17:21:28;2.70;99.90
9949;DHT22;5013;51.840;8.276;2022-11-20T17:23:54;2.80;99.90
9949;DHT22;5013;51.840;8.276;2022-11-20T17:26:22;2.70;99.90
9949;DHT22;5013;51.840;8.276;2022-11-20T17:31:19;2.70;1.00
9949;DHT22;5013;51.840;8.276;2022-11-20T17:33:46;2.70;99.90
9949;DHT22;5013;51.840;8.276;2022-11-20T17:36:14;2.60;1.00
9949;DHT22;5013;51.840;8.276;2022-11-20T17:38:41;2.60;1.00
9949;DHT22;5013;51.840;8.276;2022-11-20T17:41:15;2.60;1.00
9949;DHT22;5013;51.840;8.276;2022-11-20T17:43:41;2.70;1.00
9949;DHT22;5013;51.840;8.276;2022-11-20T17:46:11;2.50;99.90
9949;DHT22;5013;51.840;8.276;2022-11-20T17:48:39;2.40;99.90
9949;DHT22;5013;51.840;8.276;2022-11-20T17:51:11;2.30;1.00
9949;DHT22;5013;51.840;8.276;2022-11-20T17:53:39;2.30;99.90
9949;DHT22;5013;51.840;8.276;2022-11-20T17:56:06;2.20;99.90
9949;DHT22;5013;51.840;8.276;2022-11-20T17:58:50;2.20;99.90
9949;DHT22;5013;51.840;8.276;2022-11-20T18:01:17;2.20;1.00
9949;DHT22;5013;51.840;8.276;2022-11-20T18:03:43;2.10;1.00
9949;DHT22;5013;51.840;8.276;2022-11-20T18:09:28;2.00;12.20
9949;DHT22;5013;51.840;8.276;2022-11-20T18:11:54;1.90;30.30
9949;DHT22;5013;51.840;8.276;2022-11-20T18:14:19;1.80;1.00
9949;DHT22;5013;51.840;8.276;2022-11-20T18:17:05;1.80;99.90
9949;DHT22;5013;51.840;8.276;2022-11-20T18:19:36;1.90;1.00